Time;durP1;ratioP1;P1;durP2;ratioP2;P2;SDS_P1;SDS_P2;PMS_P1;PMS_P2;Temp;Humidity;BMP_temperature;BMP_pressure;BME280_temperature;BME280_humidity;BME280_pressure;Samples;Min_cycle;Max_cycle;Signal;HPM_P1;HPM_P2
2021/05/31 00:01:25;;;;;;;10.57;5.17;;;;;;;10.79;61.51;101036.19;1678152;82;31314;-74
2021/05/31 00:03:51;;;;;;;8.65;4.55;;;;;;;10.70;61.59;101040.20;1705716;82;25142;-74
2021/05/31 00:06:18;;;;;;;7.55;4.78;;;;;;;10.68;61.82;101036.91;1706750;82;34602;-74
2021/05/31 00:08:44;;;;;;;8.85;5.10;;;;;;;10.68;61.84;101033.80;1705126;82;25505;-74
2021/05/31 00:11:10;;;;;;;7.85;5.30;;;;;;;10.66;61.91;101031.81;1685400;83;25458;-80
2021/05/31 00:13:36;;;;;;;8.93;4.35;;;;;;;10.61;62.08;101034.89;1705081;82;25482;-80
2021/05/31 00:16:02;;;;;;;11.85;6.62;;;;;;;10.53;62.25;101037.42;1705099;82;25218;-74
2021/05/31 00:18:28;;;;;;;9.30;4.95;;;;;;;10.43;62.36;101036.66;1706980;82;25918;-80
2021/05/31 00:20:54;;;;;;;14.68;5.28;;;;;;;10.40;62.52;101039.56;1705706;82;25143;-80
2021/05/31 00:23:20;;;;;;;10.90;5.13;;;;;;;10.36;62.62;101038.20;1706333;82;25589;-80
2021/05/31 00:25:47;;;;;;;8.88;5.95;;;;;;;10.31;62.81;101037.36;1705936;82;25587;-80
2021/05/31 00:28:14;;;;;;;10.43;4.95;;;;;;;10.32;62.89;101032.45;1705493;82;25602;-74
2021/05/31 00:30:42;;;;;;;7.87;5.08;;;;;;;10.30;63.00;101034.38;1705357;82;25197;-74
2021/05/31 00:33:08;;;;;;;11.22;5.50;;;;;;;10.28;62.98;101030.27;1706938;82;25669;-74
2021/05/31 00:35:35;;;;;;;18.00;6.35;;;;;;;10.22;63.06;101028.55;1704274;82;25490;-74
2021/05/31 00:38:01;;;;;;;9.40;4.62;;;;;;;10.20;63.28;101026.59;1699993;82;25234;-80
2021/05/31 00:40:28;;;;;;;9.13;5.58;;;;;;;10.15;63.31;101025.38;1705571;82;25577;-81
2021/05/31 00:42:54;;;;;;;10.82;5.37;;;;;;;10.15;63.44;101022.77;1704114;82;25626;-80
2021/05/31 00:45:21;;;;;;;9.73;4.95;;;;;;;10.14;63.55;101021.11;1707145;82;25509;-80
2021/05/31 00:47:48;;;;;;;8.50;4.40;;;;;;;10.08;63.74;101015.98;1706200;82;26871;-74
2021/05/31 00:50:15;;;;;;;9.43;4.78;;;;;;;10.05;63.73;101016.77;1705275;82;25499;-80
2021/05/31 00:52:41;;;;;;;10.23;4.97;;;;;;;10.02;63.79;101013.14;1707078;82;25671;-80
2021/05/31 00:55:08;;;;;;;9.00;4.85;;;;;;;9.95;63.91;101009.78;1706299;82;25558;-80
2021/05/31 00:57:35;;;;;;;15.40;4.90;;;;;;;9.91;64.01;101011.55;1706744;82;25619;-80
2021/05/31 01:00:02;;;;;;;9.53;5.03;;;;;;;9.89;64.23;101009.06;1676933;82;25879;-74
2021/05/31 01:02:28;;;;;;;12.78;4.87;;;;;;;9.85;64.34;101012.94;1705700;82;26172;-80
2021/05/31 01:04:54;;;;;;;6.95;5.12;;;;;;;9.81;64.40;101014.67;1704160;82;25223;-79
2021/05/31 01:07:44;;;;;;;8.38;4.62;;;;;;;9.78;64.59;101006.64;1704986;82;26159;-74
2021/05/31 01:10:31;;;;;;;8.30;4.87;;;;;;;9.76;64.54;101009.87;1706635;82;25731;-74
2021/05/31 01:13:25;;;;;;;9.85;5.05;;;;;;;9.77;64.69;100999.30;1705138;82;25690;-75
2021/05/31 01:15:56;;;;;;;8.18;3.90;;;;;;;9.82;64.66;101005.86;1704732;83;25291;-81
2021/05/31 01:18:41;;;;;;;10.90;4.72;;;;;;;9.83;64.71;101002.30;1702867;83;25625;-81
2021/05/31 01:21:38;;;;;;;6.00;4.25;;;;;;;9.77;64.61;101000.60;1693984;83;25226;-80
2021/05/31 01:24:32;;;;;;;9.45;3.92;;;;;;;9.74;64.79;101003.99;1704623;83;25651;-80
2021/05/31 01:27:09;;;;;;;8.03;4.90;;;;;;;9.73;64.82;101001.84;1699784;83;25624;-81
2021/05/31 01:29:39;;;;;;;10.18;4.47;;;;;;;9.73;64.83;100999.72;1705278;83;25605;-81
2021/05/31 01:32:05;;;;;;;11.63;5.30;;;;;;;9.73;64.81;100997.92;1703861;83;25614;-81
2021/05/31 01:34:34;;;;;;;5.90;4.08;;;;;;;9.74;64.85;101000.08;1706557;83;25652;-81
2021/05/31 01:37:16;;;;;;;7.83;4.10;;;;;;;9.69;64.94;101004.41;1701808;83;25633;-81
2021/05/31 01:39:46;;;;;;;8.85;5.25;;;;;;;9.58;65.02;101007.20;1703150;83;25680;-75
2021/05/31 01:42:13;;;;;;;7.45;5.05;;;;;;;9.53;65.16;101006.31;1704287;83;25575;-75
2021/05/31 01:44:40;;;;;;;10.38;4.08;;;;;;;9.50;65.25;101003.18;1705908;83;25232;-75
2021/05/31 01:47:09;;;;;;;6.92;4.28;;;;;;;9.44;65.34;101007.63;1705281;83;25241;-75
2021/05/31 01:49:36;;;;;;;7.17;4.20;;;;;;;9.36;65.47;101003.15;1700306;83;25675;-75
2021/05/31 01:52:05;;;;;;;8.70;4.28;;;;;;;9.37;65.62;101004.78;1677812;83;27358;-75
2021/05/31 01:54:32;;;;;;;6.25;4.35;;;;;;;9.37;65.60;101003.97;1707088;82;25197;-81
2021/05/31 01:57:00;;;;;;;9.05;4.72;;;;;;;9.31;65.67;101007.47;1687250;82;25725;-75
2021/05/31 01:59:27;;;;;;;11.12;4.58;;;;;;;9.24;65.81;101002.95;1705181;82;25554;-75
2021/05/31 02:01:53;;;;;;;8.05;4.45;;;;;;;9.19;65.91;101000.75;1706372;82;25617;-75
2021/05/31 02:04:20;;;;;;;7.53;4.35;;;;;;;9.16;66.04;101003.64;1706197;82;25683;-75
2021/05/31 02:06:48;;;;;;;7.03;3.98;;;;;;;9.20;66.26;100999.81;1705604;82;25577;-75
2021/05/31 02:09:14;;;;;;;5.92;4.08;;;;;;;9.16;66.09;100999.73;1707725;82;25464;-75
2021/05/31 02:11:48;;;;;;;11.85;3.98;;;;;;;9.14;66.21;100996.47;1705611;82;25517;-75
2021/05/31 02:14:49;;;;;;;6.92;4.60;;;;;;;9.10;66.18;100999.81;1706104;82;25197;-75
2021/05/31 02:17:40;;;;;;;6.55;4.12;;;;;;;9.13;66.23;101003.11;1705676;82;25574;-81
2021/05/31 02:20:10;;;;;;;10.68;4.50;;;;;;;9.20;66.27;101013.34;1705830;82;25871;-74
2021/05/31 02:22:49;;;;;;;7.08;4.03;;;;;;;9.21;66.23;101009.76;1705108;82;25599;-74
2021/05/31 02:25:16;;;;;;;9.50;4.47;;;;;;;9.16;66.28;101013.27;1704489;82;25223;-75
2021/05/31 02:27:44;;;;;;;9.88;4.72;;;;;;;9.19;66.28;101014.28;1705080;82;25629;-75
2021/05/31 02:30:13;;;;;;;7.62;3.92;;;;;;;9.19;66.26;101014.28;1706409;82;25504;-81
2021/05/31 02:32:59;;;;;;;8.57;4.70;;;;;;;9.15;66.34;101016.84;1704165;82;25526;-81
2021/05/31 02:35:29;;;;;;;7.97;4.45;;;;;;;9.15;66.34;101014.23;1706742;82;25638;-75
2021/05/31 02:37:55;;;;;;;7.00;4.60;;;;;;;9.17;66.33;101016.23;1704042;82;25671;-81
2021/05/31 02:40:22;;;;;;;7.90;4.42;;;;;;;9.16;66.35;101021.09;1705975;82;25232;-81
2021/05/31 02:42:52;;;;;;;7.30;3.87;;;;;;;9.15;66.31;101018.97;1706003;82;25727;-81
2021/05/31 02:45:20;;;;;;;;;;;;;;;9.17;66.31;101017.53;1707627;82;25214;-81
2021/05/31 02:47:46;;;;;;;9.90;5.12;;;;;;;9.14;66.44;101016.03;1704597;82;25590;-81
2021/05/31 02:50:13;;;;;;;8.15;4.37;;;;;;;9.05;66.37;101018.96;1705934;82;25202;-81
2021/05/31 02:52:41;;;;;;;9.38;4.37;;;;;;;9.02;66.54;101015.81;1708665;82;25226;-81
2021/05/31 02:55:16;;;;;;;7.92;4.22;;;;;;;9.01;66.60;101015.00;1705041;82;26463;-75
2021/05/31 02:57:42;;;;;;;7.92;3.83;;;;;;;8.95;66.69;101013.41;1706899;82;25638;-75
2021/05/31 03:00:12;;;;;;;10.65;3.70;;;;;;;8.94;66.81;101015.20;1703919;82;25630;-75
2021/05/31 03:02:38;;;;;;;5.70;3.90;;;;;;;8.97;66.86;101017.53;1705373;82;25562;-81
2021/05/31 03:05:08;;;;;;;8.38;4.08;;;;;;;8.97;66.95;101016.70;1704714;82;25561;-81
2021/05/31 03:07:34;;;;;;;9.13;4.63;;;;;;;8.97;67.02;101024.05;1707058;82;26457;-81
2021/05/31 03:09:59;;;;;;;6.25;3.60;;;;;;;9.00;67.18;101019.89;1705367;82;25267;-75
2021/05/31 03:12:26;;;;;;;9.60;4.63;;;;;;;9.08;67.26;101019.17;1704604;82;25695;-81
2021/05/31 03:14:52;;;;;;;9.90;5.25;;;;;;;9.04;67.29;101009.50;1707353;82;25542;-81
2021/05/31 03:17:20;;;;;;;8.00;4.20;;;;;;;9.05;67.42;101013.75;1706095;82;25605;-81
2021/05/31 03:19:47;;;;;;;6.92;4.33;;;;;;;9.06;67.54;101008.89;1705541;82;25659;-75
2021/05/31 03:22:14;;;;;;;8.85;4.20;;;;;;;9.03;67.41;101007.88;1706607;82;25572;-75
2021/05/31 03:24:40;;;;;;;9.08;4.80;;;;;;;8.97;67.70;101006.28;1704592;82;25695;-75
2021/05/31 03:27:06;;;;;;;6.40;3.98;;;;;;;8.92;67.91;101013.69;1705871;82;25591;-81
2021/05/31 03:29:33;;;;;;;12.25;4.10;;;;;;;8.89;67.98;101005.66;1698265;82;25179;-80
2021/05/31 03:32:00;;;;;;;6.70;3.67;;;;;;;8.92;68.15;101013.23;1707696;82;25733;-81
2021/05/31 03:34:26;;;;;;;9.28;3.90;;;;;;;8.98;68.26;101012.67;1706071;82;25578;-75
2021/05/31 03:36:52;;;;;;;6.72;3.65;;;;;;;9.02;68.16;101008.00;1705284;82;26013;-75
2021/05/31 03:39:18;;;;;;;6.05;3.90;;;;;;;9.09;68.24;101006.00;1703613;82;25646;-75
2021/05/31 03:41:44;;;;;;;6.67;4.42;;;;;;;9.13;68.11;101010.94;1707148;82;25548;-75
2021/05/31 03:44:11;;;;;;;8.27;4.30;;;;;;;9.20;68.15;101012.03;1707017;82;25641;-75
2021/05/31 03:46:37;;;;;;;6.95;4.28;;;;;;;9.27;68.11;101009.19;1707455;82;25562;-75
2021/05/31 03:49:04;;;;;;;9.43;4.62;;;;;;;9.30;67.90;101012.36;1704476;82;25174;-75
2021/05/31 03:51:30;;;;;;;9.90;4.40;;;;;;;9.30;67.99;101019.34;1705375;82;25151;-75
2021/05/31 03:53:56;;;;;;;7.12;4.37;;;;;;;9.30;67.91;101014.97;1708070;82;26216;-75
2021/05/31 03:56:22;;;;;;;10.80;5.10;;;;;;;9.33;67.98;101019.09;1705913;82;25611;-75
2021/05/31 03:58:49;;;;;;;9.30;4.70;;;;;;;9.33;67.86;101021.70;1706305;82;28279;-75
2021/05/31 04:01:16;;;;;;;6.70;4.30;;;;;;;9.29;67.94;101021.62;1706537;82;25194;-81
2021/05/31 04:03:43;;;;;;;14.13;4.75;;;;;;;9.21;68.05;101017.58;1707395;82;25304;-81
2021/05/31 04:11:40;;;;;;;7.58;4.60;;;;;;;9.39;68.34;101018.52;1706156;82;25542;-75
2021/05/31 04:14:16;;;;;;;10.35;4.87;;;;;;;9.40;68.04;101013.63;1708366;82;25777;-81
2021/05/31 04:16:45;;;;;;;9.98;5.08;;;;;;;9.42;68.05;101013.50;1707379;82;25629;-82
2021/05/31 04:19:13;;;;;;;6.75;4.05;;;;;;;9.44;68.11;101008.94;1706891;82;25902;-76
2021/05/31 04:21:43;;;;;;;7.78;4.55;;;;;;;9.50;68.21;101014.43;1706501;82;25563;-76
2021/05/31 04:24:11;;;;;;;8.03;5.37;;;;;;;9.56;68.38;101012.55;1706531;82;25576;-76
2021/05/31 04:26:38;;;;;;;8.75;4.45;;;;;;;9.68;68.18;101011.06;1706033;82;25712;-76
2021/05/31 04:29:07;;;;;;;9.93;4.83;;;;;;;9.81;68.18;101010.27;1706929;82;25715;-76
2021/05/31 04:31:34;;;;;;;10.50;4.30;;;;;;;9.94;68.09;101014.67;1705450;82;25270;-75
2021/05/31 04:34:03;;;;;;;9.43;4.70;;;;;;;10.03;67.71;101018.20;1674653;82;25634;-75
2021/05/31 04:36:30;;;;;;;8.20;4.42;;;;;;;10.13;67.50;101022.09;1705824;82;25485;-81
2021/05/31 04:38:56;;;;;;;8.20;4.40;;;;;;;10.21;67.47;101016.95;1706926;82;25220;-82
2021/05/31 04:41:22;;;;;;;15.83;4.85;;;;;;;10.32;67.34;101010.73;1707745;82;25815;-82
2021/05/31 04:43:48;;;;;;;8.78;4.78;;;;;;;10.46;67.18;101008.91;1705817;82;25351;-76
2021/05/31 04:46:15;;;;;;;7.33;4.80;;;;;;;10.61;67.05;101013.13;1705486;82;25498;-76
2021/05/31 04:48:41;;;;;;;11.55;4.70;;;;;;;10.74;66.93;101004.44;1706266;82;25459;-76
2021/05/31 04:51:07;;;;;;;11.60;4.92;;;;;;;10.85;66.74;101006.00;1706276;82;25187;-81
2021/05/31 04:53:34;;;;;;;12.90;4.45;;;;;;;10.95;66.68;101008.54;1707102;82;34910;-82
2021/05/31 04:56:05;;;;;;;9.00;4.75;;;;;;;11.06;66.35;101001.75;1707492;82;25593;-81
2021/05/31 04:58:29;;;;;;;6.55;3.33;;;;;;;11.19;66.31;101005.30;1711230;82;25570;-82
2021/05/31 05:00:56;;;;;;;10.20;3.20;;;;;;;11.29;65.18;101001.61;1708219;82;25480;-81
2021/05/31 05:03:22;;;;;;;9.10;3.30;;;;;;;11.41;65.11;101003.96;1705346;82;25602;-82
2021/05/31 05:05:49;;;;;;;7.17;4.00;;;;;;;11.51;64.79;101004.19;1705171;82;25424;-82
2021/05/31 05:08:16;;;;;;;8.93;3.90;;;;;;;11.61;64.52;101009.30;1704900;82;25155;-81
2021/05/31 05:10:43;;;;;;;10.00;3.37;;;;;;;11.68;63.54;101006.40;1676955;82;25524;-81
2021/05/31 05:13:10;;;;;;;7.15;3.08;;;;;;;11.71;63.17;101008.70;1704153;82;26053;-82
2021/05/31 05:15:36;;;;;;;7.83;3.40;;;;;;;11.82;63.09;101009.41;1706133;82;25519;-81
2021/05/31 05:18:03;;;;;;;10.15;3.27;;;;;;;11.88;62.93;101014.86;1708186;82;25455;-81
2021/05/31 05:20:32;;;;;;;6.20;3.42;;;;;;;11.99;62.79;101013.27;1707462;82;25353;-81
2021/05/31 05:22:59;;;;;;;12.20;3.52;;;;;;;12.10;62.44;101021.83;1704240;82;26921;-82
2021/05/31 05:25:25;;;;;;;10.28;3.42;;;;;;;12.14;62.34;101020.05;1706231;82;25639;-81
2021/05/31 05:27:53;;;;;;;8.58;3.00;;;;;;;12.14;62.21;101023.98;1705423;82;25213;-81
2021/05/31 05:30:23;;;;;;;10.58;3.47;;;;;;;12.12;62.09;101024.63;1707220;82;25908;-76
2021/05/31 05:32:50;;;;;;;;;;;;;;;12.06;61.57;101026.58;1709737;82;25593;-82
2021/05/31 05:43:16;;;;;;;5.85;2.90;;;;;;;12.25;60.94;101025.95;1706806;82;26235;-79
2021/05/31 05:48:06;;;;;;;11.45;3.08;;;;;;;12.50;61.32;101017.19;1705750;82;26288;-79
2021/05/31 05:50:32;;;;;;;9.30;2.98;;;;;;;12.62;61.06;101013.26;1705844;82;25175;-79
2021/05/31 05:52:58;;;;;;;5.97;2.87;;;;;;;12.81;60.55;101016.06;1704352;82;25175;-73
2021/05/31 05:55:25;;;;;;;7.28;3.55;;;;;;;12.96;60.74;101014.94;1707123;82;34771;-73
2021/05/31 05:57:50;;;;;;;6.03;2.80;;;;;;;13.14;60.63;101012.62;1710874;82;32371;-78
2021/05/31 06:00:22;;;;;;;9.00;2.80;;;;;;;13.30;60.51;101014.75;1707310;82;26147;-79
2021/05/31 06:02:49;;;;;;;8.65;2.70;;;;;;;13.45;60.18;101014.06;1706096;82;25435;-79
2021/05/31 06:05:16;;;;;;;9.05;3.02;;;;;;;13.53;59.01;101008.33;1710173;82;25727;-79
2021/05/31 06:07:44;;;;;;;6.85;2.72;;;;;;;13.63;57.20;101016.50;1705790;82;25207;-79
2021/05/31 06:10:12;;;;;;;7.33;2.58;;;;;;;13.65;57.75;101005.33;1706743;82;25509;-79
2021/05/31 06:12:59;;;;;;;7.53;2.87;;;;;;;13.69;58.04;101009.24;1704662;82;25617;-80
2021/05/31 06:15:25;;;;;;;4.90;2.55;;;;;;;13.75;56.72;101008.59;1775281;78;25781;-79
2021/05/31 06:17:51;;;;;;;10.73;2.37;;;;;;;13.79;57.09;101011.69;1772946;78;29871;-80
2021/05/31 06:20:17;;;;;;;6.60;2.67;;;;;;;13.81;56.74;101002.64;1775486;78;34748;-79
2021/05/31 06:22:43;;;;;;;31.45;4.50;;;;;;;13.89;56.58;101013.63;1774955;78;25165;-74
2021/05/31 06:25:11;;;;;;;10.85;2.83;;;;;;;13.99;56.64;101015.06;1771873;78;26362;-79
2021/05/31 06:27:37;;;;;;;8.43;2.15;;;;;;;14.09;55.51;101014.02;1774806;78;25486;-74
2021/05/31 06:30:06;;;;;;;5.40;2.27;;;;;;;14.15;55.06;101010.70;1775149;78;25649;-74
2021/05/31 06:32:33;;;;;;;10.10;3.85;;;;;;;14.27;55.59;101017.22;1771105;78;25677;-79
2021/05/31 06:34:59;;;;;;;7.35;2.30;;;;;;;14.40;55.59;101014.00;1773374;78;25408;-79
2021/05/31 06:37:25;;;;;;;7.17;2.30;;;;;;;14.48;54.44;101013.14;1774569;78;25691;-79
2021/05/31 06:39:51;;;;;;;9.00;3.22;;;;;;;14.50;54.47;101019.86;1774207;78;25638;-79
2021/05/31 06:42:17;;;;;;;8.13;2.12;;;;;;;14.48;53.59;101014.45;1748262;78;25695;-80
2021/05/31 06:44:43;;;;;;;8.30;2.47;;;;;;;14.44;54.55;101017.44;1773742;78;25618;-74
2021/05/31 06:47:09;;;;;;;7.90;2.60;;;;;;;14.51;54.38;101020.17;1774703;78;25576;-81
2021/05/31 06:49:38;;;;;;;9.80;3.08;;;;;;;14.56;53.95;101008.67;1775649;78;25533;-81
2021/05/31 06:52:05;;;;;;;7.90;2.50;;;;;;;14.63;53.86;101012.75;1780236;78;25156;-82
2021/05/31 06:54:32;;;;;;;9.13;2.58;;;;;;;14.74;53.51;101016.28;1776705;78;25176;-82
2021/05/31 06:56:59;;;;;;;8.00;2.42;;;;;;;14.80;53.07;101013.44;1777855;78;25179;-80
2021/05/31 06:59:25;;;;;;;3.30;2.20;;;;;;;14.87;52.26;101012.56;1778079;78;25149;-73
2021/05/31 07:01:51;;;;;;;9.78;2.08;;;;;;;14.98;52.93;101013.95;1781289;78;25404;-74
2021/05/31 07:04:18;;;;;;;6.87;2.02;;;;;;;15.12;51.55;101007.09;1783466;78;25559;-78
2021/05/31 07:06:45;;;;;;;4.45;1.90;;;;;;;15.20;50.22;101010.15;1782917;78;25415;-77
2021/05/31 07:09:12;;;;;;;6.03;2.30;;;;;;;15.28;50.53;101006.94;1749430;78;25385;-80
2021/05/31 07:11:43;;;;;;;5.30;1.77;;;;;;;15.38;50.11;101005.84;1775694;78;25148;-79
2021/05/31 07:14:07;;;;;;;4.35;1.82;;;;;;;15.53;49.77;101011.44;1773381;78;25595;-80
2021/05/31 07:16:33;;;;;;;11.10;2.22;;;;;;;15.58;46.96;101004.80;1775618;78;33568;-78
2021/05/31 07:18:59;;;;;;;5.25;2.12;;;;;;;15.54;48.41;101005.16;1775638;78;25620;-82
2021/05/31 07:21:25;;;;;;;7.00;1.95;;;;;;;15.62;49.70;101008.72;1774894;78;34642;-80
2021/05/31 07:23:51;;;;;;;5.83;1.70;;;;;;;15.81;49.37;101006.06;1776406;78;25661;-80
2021/05/31 07:26:17;;;;;;;7.62;2.77;;;;;;;15.93;48.70;101004.58;1774418;78;25652;-80
2021/05/31 07:28:43;;;;;;;7.70;2.20;;;;;;;15.93;48.70;101004.58;1780453;78;33164;-82
2021/05/31 07:31:09;;;;;;;4.78;2.10;;;;;;;15.95;49.02;100996.80;1778806;78;31244;-81
2021/05/31 07:33:35;;;;;;;8.15;2.47;;;;;;;15.95;46.58;101000.75;1774625;78;34641;-83
2021/05/31 07:36:02;;;;;;;8.45;2.12;;;;;;;15.86;47.37;100992.64;1780825;78;32242;-78
2021/05/31 07:38:28;;;;;;;2.02;1.50;;;;;;;15.91;48.00;101000.01;1772189;80;25819;-75
2021/05/31 07:40:55;;;;;;;6.17;1.62;;;;;;;16.00;46.79;100990.98;1780250;78;25383;-76
2021/05/31 07:43:21;;;;;;;7.75;1.70;;;;;;;16.10;47.09;100990.70;1772134;78;25184;-80
2021/05/31 07:45:47;;;;;;;8.83;1.90;;;;;;;16.13;44.92;100985.86;1776901;78;25173;-81
2021/05/31 07:48:13;;;;;;;5.28;2.65;;;;;;;16.13;44.86;100988.50;1772112;78;25164;-81
2021/05/31 07:50:40;;;;;;;13.43;2.42;;;;;;;16.12;43.67;100996.58;1780742;78;25651;-83
2021/05/31 07:53:06;;;;;;;4.90;2.30;;;;;;;15.99;43.33;100976.17;1777215;78;25536;-81
2021/05/31 07:55:32;;;;;;;6.92;1.52;;;;;;;16.04;43.72;100987.46;1775257;78;25991;-83
2021/05/31 07:57:58;;;;;;;4.17;1.85;;;;;;;16.10;42.39;100985.42;1773409;78;35173;-75
2021/05/31 08:00:24;;;;;;;9.48;2.20;;;;;;;16.04;42.96;100979.08;1773082;78;25149;-76
2021/05/31 08:02:51;;;;;;;7.17;1.65;;;;;;;16.11;43.54;100987.05;1772792;78;25755;-75
2021/05/31 08:05:19;;;;;;;6.87;1.60;;;;;;;16.15;43.67;100961.92;1775852;78;25655;-79
2021/05/31 08:07:46;;;;;;;11.10;1.55;;;;;;;16.39;42.90;100984.50;1774106;78;25669;-82
2021/05/31 08:10:14;;;;;;;6.03;1.47;;;;;;;16.35;40.54;100987.21;1780148;78;25150;-80
2021/05/31 08:12:41;;;;;;;2.92;1.30;;;;;;;16.25;41.86;100989.33;1775437;78;25685;-82
2021/05/31 08:15:09;;;;;;;2.72;1.30;;;;;;;16.13;41.53;100981.09;1772102;78;25573;-81
2021/05/31 08:17:36;;;;;;;4.45;1.65;;;;;;;16.02;41.47;100989.49;1775120;78;25522;-80
2021/05/31 08:20:05;;;;;;;3.30;1.70;;;;;;;15.87;41.72;100985.03;1772098;78;25644;-78
2021/05/31 08:22:31;;;;;;;2.80;1.60;;;;;;;15.84;41.24;100986.73;1775103;78;26128;-81
2021/05/31 08:24:58;;;;;;;6.75;2.00;;;;;;;15.78;40.23;100984.02;1774261;78;32634;-82
2021/05/31 08:27:26;;;;;;;5.47;1.90;;;;;;;15.73;40.02;100976.16;1779369;78;25702;-84
2021/05/31 08:29:52;;;;;;;3.85;1.70;;;;;;;15.93;41.65;100981.69;1773548;78;25146;-83
2021/05/31 08:32:20;;;;;;;13.30;1.70;;;;;;;16.15;40.43;100983.02;1782032;78;31190;-81
2021/05/31 08:34:46;;;;;;;2.27;1.45;;;;;;;16.19;40.23;100979.83;1778420;78;25567;-82
2021/05/31 08:37:12;;;;;;;6.80;1.40;;;;;;;16.08;40.36;100981.64;1776750;78;32207;-81
2021/05/31 08:39:38;;;;;;;2.00;1.40;;;;;;;15.91;39.94;100978.41;1750833;80;25446;-83
2021/05/31 08:42:05;;;;;;;6.70;1.60;;;;;;;15.82;39.56;100978.69;1779148;78;26024;-83
2021/05/31 08:44:32;;;;;;;5.22;2.00;;;;;;;15.83;40.41;100973.75;1777522;78;25608;-83
2021/05/31 08:47:02;;;;;;;4.33;1.65;;;;;;;15.84;41.51;100972.23;1777564;78;25611;-80
2021/05/31 08:49:29;;;;;;;8.45;1.75;;;;;;;15.83;39.68;100971.92;1772676;78;25644;-81
2021/05/31 08:51:55;;;;;;;5.87;2.60;;;;;;;15.89;41.58;100973.81;1771128;79;25564;-82
2021/05/31 08:54:21;;;;;;;4.67;1.57;;;;;;;15.91;41.02;100974.45;1775506;78;33058;-81
2021/05/31 08:56:48;;;;;;;4.08;2.77;;;;;;;15.90;40.94;100974.12;1775812;78;31197;-78
2021/05/31 08:59:14;;;;;;;2.77;1.87;;;;;;;15.91;41.77;100974.45;1777179;78;25450;-82
2021/05/31 09:01:40;;;;;;;6.97;2.10;;;;;;;16.00;41.45;100971.20;1774494;78;32387;-81
2021/05/31 09:04:13;;;;;;;5.05;1.95;;;;;;;16.21;41.39;100966.47;1776380;78;25542;-82
2021/05/31 09:06:52;;;;;;;2.67;1.67;;;;;;;16.42;40.86;100972.24;1768397;78;25173;-81
2021/05/31 09:09:20;;;;;;;4.72;1.57;;;;;;;16.48;40.63;100966.71;1775190;78;25760;-79
2021/05/31 09:11:56;;;;;;;2.20;1.12;;;;;;;16.60;40.96;100966.02;1775864;78;26483;-80
2021/05/31 09:14:22;;;;;;;8.93;2.12;;;;;;;16.79;40.21;100962.47;1771605;78;25743;-79
2021/05/31 09:16:49;;;;;;;3.95;1.47;;;;;;;16.93;39.63;100964.19;1772581;78;25793;-78
2021/05/31 09:19:15;;;;;;;2.90;1.20;;;;;;;17.03;38.50;100962.03;1779470;78;25652;-77
2021/05/31 09:21:43;;;;;;;4.65;2.05;;;;;;;17.04;38.43;100961.53;1775995;78;25554;-77
2021/05/31 09:24:12;;;;;;;7.33;2.05;;;;;;;17.07;39.33;100963.27;1771667;78;25391;-78
2021/05/31 09:26:47;;;;;;;4.47;2.00;;;;;;;17.24;40.06;100959.84;1776730;78;25482;-78
2021/05/31 09:29:13;;;;;;;5.10;1.50;;;;;;;17.44;39.47;100952.02;1776553;78;25483;-76
2021/05/31 09:31:40;;;;;;;6.40;2.92;;;;;;;17.60;38.70;100956.17;1772614;78;25785;-78
2021/05/31 09:34:09;;;;;;;5.58;1.77;;;;;;;17.80;40.37;100948.34;1774186;78;25174;-78
2021/05/31 09:36:54;;;;;;;2.33;1.45;;;;;;;17.94;39.09;100953.98;1777151;80;25604;-78
2021/05/31 09:39:37;;;;;;;2.35;1.37;;;;;;;18.01;36.01;100954.53;1775050;78;25154;-79
2021/05/31 09:42:14;;;;;;;6.12;2.60;;;;;;;17.92;35.03;100956.03;1776680;78;25584;-77
2021/05/31 09:44:43;;;;;;;3.77;1.37;;;;;;;17.86;37.73;100949.37;1775262;78;25543;-79
2021/05/31 09:47:09;;;;;;;5.00;2.15;;;;;;;17.96;37.72;100945.86;1774992;78;25380;-74
2021/05/31 09:49:37;;;;;;;5.22;1.22;;;;;;;18.04;38.05;100949.64;1774864;78;25352;-75
2021/05/31 09:52:14;;;;;;;5.30;2.37;;;;;;;18.25;38.61;100951.81;1773621;78;25521;-79
2021/05/31 09:54:45;;;;;;;6.00;2.02;;;;;;;18.41;38.52;100943.00;1771932;78;25519;-78
2021/05/31 09:57:28;;;;;;;3.72;1.20;;;;;;;18.56;36.95;100936.69;1775197;78;25186;-77
2021/05/31 10:00:04;;;;;;;1.60;0.98;;;;;;;18.68;38.09;100940.86;1775480;78;25814;-78
2021/05/31 10:08:40;;;;;;;3.65;1.55;;;;;;;18.64;36.90;100936.48;1772519;78;25591;-78
2021/05/31 10:10:34;;;;;;;10.75;2.67;;;;;;;18.71;36.54;100936.47;1772123;78;25220;-80
2021/05/31 10:13:01;;;;;;;3.25;1.55;;;;;;;18.81;37.60;100935.59;1774491;78;25367;-79
2021/05/31 10:15:31;;;;;;;4.60;1.42;;;;;;;18.98;37.47;100946.05;1780347;78;25592;-78
2021/05/31 10:18:00;;;;;;;4.75;1.37;;;;;;;19.09;35.99;100930.04;1777657;78;25652;-79
2021/05/31 10:20:29;;;;;;;2.67;1.20;;;;;;;19.02;35.28;100934.55;1781419;78;25561;-79
2021/05/31 10:22:57;;;;;;;1.90;1.20;;;;;;;18.71;33.81;100949.72;1779674;78;25265;-79
2021/05/31 10:25:25;;;;;;;3.52;1.40;;;;;;;18.40;35.19;100940.03;1776228;78;25173;-80
2021/05/31 10:27:55;;;;;;;5.33;1.20;;;;;;;18.18;33.91;100935.94;1771379;78;25190;-80
2021/05/31 10:30:22;;;;;;;;;;;;;;;17.92;34.72;100934.87;1774647;78;25793;-80
2021/05/31 10:32:50;;;;;;;3.08;1.27;;;;;;;17.88;35.73;100928.33;1772162;78;25675;-80
2021/05/31 10:35:20;;;;;;;3.80;1.50;;;;;;;17.91;34.55;100933.22;1772110;78;25869;-78
2021/05/31 10:37:59;;;;;;;7.60;1.42;;;;;;;17.77;35.16;100934.17;1775104;78;25510;-79
2021/05/31 10:40:34;;;;;;;3.95;1.45;;;;;;;17.65;35.28;100933.09;1773449;78;25460;-79
2021/05/31 10:43:07;;;;;;;6.30;1.52;;;;;;;17.53;35.57;100932.33;1777655;78;25554;-80
2021/05/31 10:45:34;;;;;;;3.05;1.22;;;;;;;17.48;35.77;100929.45;1775633;78;25610;-79
2021/05/31 10:48:21;;;;;;;3.70;1.52;;;;;;;17.53;35.96;100922.27;1774198;78;26226;-80
2021/05/31 10:50:58;;;;;;;3.47;1.40;;;;;;;17.73;34.57;100915.25;1780834;78;25572;-78
2021/05/31 10:53:30;;;;;;;5.15;2.12;;;;;;;17.93;35.88;100910.04;1741566;80;25250;-80
2021/05/31 10:56:12;;;;;;;4.53;1.62;;;;;;;18.24;36.52;100904.69;1714046;81;25145;-78
2021/05/31 10:58:48;;;;;;;9.45;4.17;;;;;;;18.55;35.23;100912.54;1713826;81;25587;-79
2021/05/31 11:01:24;;;;;;;7.12;2.00;;;;;;;18.71;35.75;100907.34;1715879;81;25547;-79
2021/05/31 11:04:01;;;;;;;4.25;1.45;;;;;;;18.78;34.63;100903.70;1710600;81;26086;-80
2021/05/31 11:06:31;;;;;;;5.42;1.90;;;;;;;18.58;35.36;100906.86;1711833;81;25247;-82
2021/05/31 11:09:08;;;;;;;4.12;1.50;;;;;;;18.23;34.77;100907.05;1726398;81;25183;-80
2021/05/31 11:11:53;;;;;;;3.67;1.42;;;;;;;18.06;36.08;100909.27;1737103;80;25656;-80
2021/05/31 11:14:36;;;;;;;7.05;1.65;;;;;;;18.05;34.72;100904.16;1736385;81;25516;-79
2021/05/31 11:17:12;;;;;;;5.95;1.32;;;;;;;17.90;35.86;100904.34;1742562;80;25643;-79
2021/05/31 11:19:45;;;;;;;5.28;1.80;;;;;;;17.95;34.74;100902.73;1737456;81;25575;-79
2021/05/31 11:22:21;;;;;;;6.33;1.50;;;;;;;17.89;34.33;100911.44;1677786;83;25464;-78
2021/05/31 11:24:53;;;;;;;3.05;1.20;;;;;;;17.83;35.25;100904.30;1711363;81;25675;-81
2021/05/31 11:27:29;;;;;;;4.20;1.32;;;;;;;17.71;33.75;100896.62;1714146;81;25618;-82
2021/05/31 11:29:54;;;;;;;3.70;1.42;;;;;;;17.62;34.44;100896.48;1711441;81;25530;-84
2021/05/31 11:32:21;;;;;;;4.70;1.40;;;;;;;17.69;34.73;100897.33;1723289;81;25546;-85
2021/05/31 11:34:58;;;;;;;2.77;1.20;;;;;;;17.68;34.53;100901.00;1724351;80;25605;-78
2021/05/31 11:37:27;;;;;;;12.47;1.75;;;;;;;17.57;34.76;100890.48;1713485;81;25663;-79
2021/05/31 11:39:54;;;;;;;8.57;1.30;;;;;;;17.52;35.14;100892.90;1717173;81;26013;-80
2021/05/31 11:42:21;;;;;;;4.33;1.30;;;;;;;17.57;35.54;100899.73;1715117;81;25562;-78
2021/05/31 11:44:58;;;;;;;2.95;1.20;;;;;;;17.72;35.22;100903.53;1716034;81;25477;-81
2021/05/31 11:47:27;;;;;;;3.37;1.20;;;;;;;17.89;34.58;100895.56;1714722;81;25377;-81
2021/05/31 11:49:54;;;;;;;4.62;1.50;;;;;;;18.06;34.86;100884.13;1720754;81;25765;-80
2021/05/31 11:52:26;;;;;;;6.00;1.65;;;;;;;17.96;34.14;100888.98;1719168;81;25605;-73
2021/05/31 11:54:52;;;;;;;13.55;2.47;;;;;;;17.86;34.52;100892.00;1720826;81;25161;-76
2021/05/31 11:57:25;;;;;;;7.22;1.50;;;;;;;17.70;34.00;100891.02;1717963;81;25495;-75